KBCB/BCB METAR and TAF weather

Enter ICAO airport designator
Station Type Date Time Source
KBCB METAR 2020/01/28 05:15 UTC NOAA

KBCB 280515Z AUTO 29005KT 10SM OVC029 03/M02 A2991 RMK AO2 T00261016


Station Type Date Time Source
KBCB Decoded METAR 2020/01/28 05:15 UTC NOAA

Virginia Tech Airport, VA, United States (KBCB) 37-13N 080-25W
Jan 28, 2020 - 12:15 AM EST / 2020.01.28 0515 UTC
Wind: from the WNW (290 degrees) at 6 MPH (5 KT):0
Visibility: 10 mile(s):0
Sky conditions: overcast
Temperature: 36.7 F (2.6 C)
Dew Point: 29.1 F (-1.6 C)
Relative Humidity: 73%
Pressure (altimeter): 29.91 in. Hg (1012 hPa)
ob: KBCB 280515Z AUTO 29005KT 10SM OVC029 03/M02 A2991 RMK AO2 T00261016
cycle: 5

Station Type Date Time Source
KBCB TAF 2020/01/27 20:45 UTC NOAA

TAF
AMD KBCB 271941Z 2720/2818 28008KT P6SM OVC025
FM280300 31008KT P6SM BKN035
FM281400 29007KT P6SM BKN060

Example: see airport list